Terminal Aerodrome Forecast
Issued by NWS Quad Cities IA IL

Home | Current Version | Previous Version | Text Only | Print | Product List | Glossary On
Versions: 1 2 3 4 5 6 7 8 9 10 11 12 13 14
000
FTUS43 KDVN 172324
TAFDBQ
TAF
KDBQ 172324Z 1800/1824 28010G18KT P6SM OVC050
     FM180200 27006KT P6SM SKC
     FM181600 22005KT P6SM FEW040
     FM182300 24006KT P6SM VCSH BKN050=

USA.gov is the U.S. government's official web portal to all federal, state and local government web resources and services.